createdAt,value
2022-08-08T00:00:41.059Z,22.78
2022-08-08T00:00:50.607Z,22.78
2022-08-08T00:02:04.049Z,22.77
2022-08-08T00:03:19.880Z,22.77
2022-08-08T00:04:25.494Z,22.77
2022-08-08T00:05:43.321Z,22.76
2022-08-08T00:06:46.964Z,22.76
2022-08-08T00:08:24.775Z,22.75
2022-08-08T00:09:42.190Z,22.76
2022-08-08T00:10:51.487Z,22.74
2022-08-08T00:12:09.851Z,22.73
2022-08-08T00:14:57.196Z,22.83
2022-08-08T00:15:57.213Z,22.73
2022-08-08T00:17:04.897Z,22.73
2022-08-08T00:18:19.417Z,22.73
2022-08-08T00:19:38.207Z,22.73
2022-08-08T00:20:52.341Z,22.73
2022-08-08T00:22:16.056Z,22.68
2022-08-08T00:23:42.699Z,22.66
2022-08-08T00:24:40.755Z,22.62
2022-08-08T00:25:51.129Z,22.59
2022-08-08T00:27:01.495Z,22.56
2022-08-08T00:28:07.486Z,22.58
2022-08-08T00:29:45.377Z,22.58
2022-08-08T00:30:36.506Z,22.59
2022-08-08T00:32:28.966Z,22.59
2022-08-08T00:35:10.243Z,22.71
2022-08-08T00:36:35.166Z,22.59
2022-08-08T00:37:47.095Z,22.55
2022-08-08T00:39:04.654Z,22.52
2022-08-08T00:41:10.766Z,22.48
2022-08-08T00:41:54.920Z,22.48
2022-08-08T00:43:12.019Z,22.45
2022-08-08T00:44:18.003Z,22.43
2022-08-08T00:45:45.173Z,22.43
2022-08-08T00:47:19.920Z,22.43
2022-08-08T00:48:42.748Z,22.43
2022-08-08T00:49:58.690Z,22.43
2022-08-08T00:51:09.696Z,22.42
2022-08-08T00:52:20.745Z,22.42
2022-08-08T00:53:43.598Z,22.42
2022-08-08T00:54:56.005Z,22.41
2022-08-08T00:56:31.361Z,22.40
2022-08-08T00:58:14.615Z,22.40
2022-08-08T00:59:46.462Z,22.38
2022-08-08T01:01:10.220Z,22.35
2022-08-08T01:03:59.236Z,22.34
2022-08-08T01:04:14.770Z,22.33
2022-08-08T01:05:59.134Z,22.31
2022-08-08T01:07:23.274Z,22.31
2022-08-08T01:09:34.784Z,22.28
2022-08-08T01:10:49.800Z,22.23
2022-08-08T01:12:19.223Z,22.17
2022-08-08T01:13:53.047Z,22.15
2022-08-08T01:15:07.838Z,22.12
2022-08-08T01:16:42.385Z,22.12
2022-08-08T01:18:50.546Z,22.12
2022-08-08T01:20:01.662Z,22.10
2022-08-08T01:21:34.963Z,22.07
2022-08-08T01:22:57.141Z,22.05
2022-08-08T01:24:38.835Z,22.04
2022-08-08T01:26:11.448Z,22.02
2022-08-08T01:27:33.260Z,22.01
2022-08-08T01:28:55.576Z,22.00
2022-08-08T01:30:06.874Z,21.99
2022-08-08T01:32:13.535Z,21.97
2022-08-08T01:33:42.863Z,21.97
2022-08-08T01:34:58.927Z,21.96
2022-08-08T01:36:27.096Z,21.96
2022-08-08T01:37:57.796Z,21.93
2022-08-08T01:39:23.321Z,21.88
2022-08-08T01:40:26.182Z,21.85
2022-08-08T01:41:45.378Z,21.83
2022-08-08T01:43:34.761Z,21.82
2022-08-08T01:44:50.584Z,21.81
2022-08-08T01:46:02.473Z,21.79
2022-08-08T01:48:14.619Z,21.78
2022-08-08T01:48:46.301Z,21.75
2022-08-08T01:49:56.532Z,21.77
2022-08-08T01:52:28.525Z,21.75
2022-08-08T01:55:25.514Z,21.76
2022-08-08T01:55:26.449Z,21.76
2022-08-08T01:56:29.928Z,21.75
2022-08-08T01:58:04.222Z,21.76
2022-08-08T01:58:58.293Z,21.75
2022-08-08T02:00:23.690Z,21.74
2022-08-08T02:01:59.522Z,21.74
2022-08-08T02:03:07.159Z,21.74
2022-08-08T02:04:14.738Z,21.74
2022-08-08T02:05:56.926Z,21.74
2022-08-08T02:07:07.186Z,21.77
2022-08-08T02:08:34.043Z,21.77
2022-08-08T02:10:03.595Z,21.78
2022-08-08T02:11:23.414Z,21.77
2022-08-08T02:12:32.442Z,21.74
2022-08-08T02:13:54.484Z,21.73
2022-08-08T02:14:58.697Z,21.73
2022-08-08T02:16:36.926Z,21.74
2022-08-08T02:17:55.370Z,21.75
2022-08-08T02:19:41.560Z,21.74
2022-08-08T02:22:31.212Z,21.85
2022-08-08T02:23:38.932Z,21.74
2022-08-08T02:24:54.704Z,21.72
2022-08-08T02:26:26.568Z,21.71
2022-08-08T02:27:38.720Z,21.71
2022-08-08T02:28:59.985Z,21.70
2022-08-08T02:30:20.793Z,21.70
2022-08-08T02:31:58.445Z,21.70
2022-08-08T02:33:16.758Z,21.71
2022-08-08T02:35:08.041Z,21.72
2022-08-08T02:36:25.865Z,21.72
2022-08-08T02:38:00.317Z,21.70
2022-08-08T02:39:42.789Z,21.69
2022-08-08T02:40:57.179Z,21.65
2022-08-08T02:42:38.272Z,21.66
2022-08-08T02:44:39.318Z,21.65
2022-08-08T02:45:18.363Z,21.63
2022-08-08T02:46:31.994Z,21.62
2022-08-08T02:47:52.184Z,21.62
2022-08-08T02:49:35.869Z,21.62
2022-08-08T02:50:40.938Z,21.62
2022-08-08T02:52:34.965Z,21.62
2022-08-08T02:53:38.558Z,21.61
2022-08-08T02:54:45.190Z,21.59
2022-08-08T02:56:05.717Z,21.58
2022-08-08T02:57:44.391Z,21.58
2022-08-08T02:58:55.503Z,21.58
2022-08-08T03:00:31.982Z,21.58
2022-08-08T03:01:50.038Z,21.59
2022-08-08T03:02:55.567Z,21.61
2022-08-08T03:05:03.068Z,21.61
2022-08-08T03:05:45.121Z,21.61
2022-08-08T03:07:19.431Z,21.64
2022-08-08T03:08:59.694Z,21.64
2022-08-08T03:10:33.020Z,21.65
2022-08-08T03:12:08.434Z,21.67
2022-08-08T03:13:33.910Z,21.68
2022-08-08T03:16:01.581Z,21.68
2022-08-08T03:16:19.835Z,21.68
2022-08-08T03:17:39.437Z,21.69
2022-08-08T03:19:17.839Z,21.70
2022-08-08T03:20:19.013Z,21.72
2022-08-08T03:21:40.855Z,21.72
2022-08-08T03:22:38.270Z,21.73
2022-08-08T03:23:39.747Z,21.75
2022-08-08T03:24:39.057Z,21.77
2022-08-08T03:25:45.925Z,21.79
2022-08-08T03:26:55.534Z,21.81
2022-08-08T03:28:18.936Z,21.83
2022-08-08T03:29:27.009Z,21.85
2022-08-08T03:30:32.210Z,21.87
2022-08-08T03:32:06.163Z,21.89
2022-08-08T03:33:56.085Z,21.90
2022-08-08T03:34:25.738Z,21.93
2022-08-08T03:35:33.293Z,21.95
2022-08-08T03:36:43.187Z,21.95
2022-08-08T03:38:54.500Z,21.96
2022-08-08T03:39:07.596Z,21.96
2022-08-08T03:40:02.430Z,21.98
2022-08-08T03:41:22.955Z,21.98
2022-08-08T03:42:29.766Z,22.00
2022-08-08T03:43:22.498Z,22.02
2022-08-08T03:44:34.827Z,22.03
2022-08-08T03:46:04.926Z,22.04
2022-08-08T03:46:48.912Z,22.06
2022-08-08T03:48:01.624Z,22.07
2022-08-08T03:49:31.130Z,22.08
2022-08-08T03:50:24.722Z,22.11
2022-08-08T03:51:26.478Z,22.13
2022-08-08T03:52:35.478Z,22.14
2022-08-08T03:53:47.255Z,22.16
2022-08-08T03:55:02.119Z,22.17
2022-08-08T03:55:57.980Z,22.18
2022-08-08T03:56:56.439Z,22.20
2022-08-08T03:58:34.999Z,22.22
2022-08-08T03:59:05.314Z,22.24
2022-08-08T04:00:12.217Z,22.26
2022-08-08T04:01:24.272Z,22.27
2022-08-08T04:02:33.040Z,22.27
2022-08-08T04:03:57.949Z,22.29
2022-08-08T04:04:41.788Z,22.31
2022-08-08T04:05:47.914Z,22.32
2022-08-08T04:07:00.922Z,22.33
2022-08-08T04:08:07.541Z,22.34
2022-08-08T04:09:14.160Z,22.36
2022-08-08T04:10:18.925Z,22.38
2022-08-08T04:11:23.704Z,22.38
2022-08-08T04:12:26.996Z,22.40
2022-08-08T04:13:30.178Z,22.40
2022-08-08T04:14:36.577Z,22.43
2022-08-08T04:16:03.290Z,22.44
2022-08-08T04:16:49.180Z,22.45
2022-08-08T04:17:59.216Z,22.46
2022-08-08T04:18:56.777Z,22.49
2022-08-08T04:20:01.721Z,22.50
2022-08-08T04:21:06.501Z,22.52
2022-08-08T04:22:10.353Z,22.54
2022-08-08T04:23:15.632Z,22.55
2022-08-08T04:24:19.500Z,22.55
2022-08-08T04:25:30.217Z,22.57
2022-08-08T04:26:40.108Z,22.58
2022-08-08T04:28:02.066Z,22.59
2022-08-08T04:28:41.596Z,22.61
2022-08-08T04:29:55.045Z,22.63
2022-08-08T04:30:49.248Z,22.64
2022-08-08T04:31:58.959Z,22.67
2022-08-08T04:32:57.293Z,22.68
2022-08-08T04:34:05.299Z,22.69
2022-08-08T04:35:13.493Z,22.72
2022-08-08T04:36:16.251Z,22.73
2022-08-08T04:37:19.997Z,22.75
2022-08-08T04:38:25.635Z,22.76
2022-08-08T04:40:05.763Z,22.79
2022-08-08T04:40:36.049Z,22.83
2022-08-08T04:41:40.201Z,22.84
2022-08-08T04:42:46.923Z,22.86
2022-08-08T04:43:53.922Z,22.89
2022-08-08T04:44:57.256Z,22.92
2022-08-08T04:46:01.398Z,22.95
2022-08-08T04:47:06.902Z,22.98
2022-08-08T04:48:11.675Z,23.00
2022-08-08T04:49:16.537Z,23.03
2022-08-08T04:50:24.661Z,23.04
2022-08-08T04:51:48.358Z,23.08
2022-08-08T04:52:33.963Z,23.10
2022-08-08T04:54:27.444Z,23.13
2022-08-08T04:54:44.518Z,23.15
2022-08-08T04:55:55.861Z,23.16
2022-08-08T04:56:55.196Z,23.20
2022-08-08T04:57:59.235Z,23.22
2022-08-08T04:59:02.607Z,23.27
2022-08-08T05:00:07.070Z,23.27
2022-08-08T05:01:12.235Z,23.29
2022-08-08T05:02:20.129Z,23.33
2022-08-08T05:04:09.526Z,23.34
2022-08-08T05:04:27.287Z,23.37
2022-08-08T05:05:45.434Z,23.38
2022-08-08T05:06:39.236Z,23.40
2022-08-08T05:07:42.984Z,23.42
2022-08-08T05:08:51.668Z,23.43
2022-08-08T05:09:52.811Z,23.44
2022-08-08T05:10:58.026Z,23.46
2022-08-08T05:12:02.831Z,23.48
2022-08-08T05:13:12.865Z,23.50
2022-08-08T05:14:14.079Z,23.55
2022-08-08T05:15:18.690Z,23.55
2022-08-08T05:16:48.282Z,23.57
2022-08-08T05:17:29.267Z,23.60
2022-08-08T05:18:36.459Z,23.65
2022-08-08T05:20:10.912Z,23.65
2022-08-08T05:20:50.437Z,23.68
2022-08-08T05:21:59.949Z,23.71
2022-08-08T05:22:59.452Z,23.74
2022-08-08T05:24:10.446Z,23.75
2022-08-08T05:25:10.309Z,23.77
2022-08-08T05:26:15.073Z,23.79
2022-08-08T05:27:20.010Z,23.82
2022-08-08T05:28:55.869Z,23.84
2022-08-08T05:29:29.648Z,23.86
2022-08-08T05:30:32.981Z,23.88
2022-08-08T05:32:05.547Z,23.91
2022-08-08T05:32:43.119Z,23.93
2022-08-08T05:33:48.448Z,23.95
2022-08-08T05:34:53.237Z,23.97
2022-08-08T05:36:02.042Z,24.00
2022-08-08T05:37:07.401Z,24.02
2022-08-08T05:38:30.414Z,24.05
2022-08-08T05:39:24.919Z,24.10
2022-08-08T05:40:30.253Z,24.10
2022-08-08T05:41:55.032Z,24.13
2022-08-08T05:42:44.894Z,24.17
2022-08-08T05:44:03.468Z,24.21
2022-08-08T05:45:00.454Z,24.24
2022-08-08T05:46:08.074Z,24.24
2022-08-08T05:47:14.206Z,24.26
2022-08-08T05:48:17.656Z,24.29
2022-08-08T05:49:22.961Z,24.29
2022-08-08T05:50:33.632Z,24.32
2022-08-08T05:51:48.051Z,24.33
2022-08-08T05:52:42.317Z,24.36
2022-08-08T05:54:24.129Z,24.38
2022-08-08T05:54:55.729Z,24.42
2022-08-08T05:56:11.053Z,24.42
2022-08-08T05:57:09.219Z,24.47
2022-08-08T05:58:17.262Z,24.48
2022-08-08T05:59:59.465Z,24.48
2022-08-08T06:00:30.129Z,24.51
2022-08-08T06:01:55.821Z,24.53
2022-08-08T06:03:06.789Z,24.56
2022-08-08T06:04:13.774Z,24.61
2022-08-08T06:05:33.910Z,24.63
2022-08-08T06:06:32.321Z,24.63
2022-08-08T06:07:32.531Z,24.65
2022-08-08T06:08:53.231Z,24.70
2022-08-08T06:09:59.675Z,24.72
2022-08-08T06:10:56.836Z,24.72
2022-08-08T06:12:01.994Z,24.76
2022-08-08T06:13:07.559Z,24.78
2022-08-08T06:14:12.907Z,24.85
2022-08-08T06:15:17.488Z,24.85
2022-08-08T06:16:27.681Z,24.88
2022-08-08T06:17:51.351Z,24.90
2022-08-08T06:18:43.788Z,24.93
2022-08-08T06:19:48.016Z,24.96
2022-08-08T06:20:57.337Z,24.99
2022-08-08T06:22:31.768Z,25.00
2022-08-08T06:23:12.033Z,25.03
2022-08-08T06:24:30.389Z,25.05
2022-08-08T06:25:33.441Z,25.08
2022-08-08T06:26:38.373Z,25.11
2022-08-08T06:27:47.863Z,25.15
2022-08-08T06:29:26.749Z,25.18
2022-08-08T06:30:20.219Z,25.21
2022-08-08T06:31:22.821Z,25.26
2022-08-08T06:32:31.414Z,25.29
2022-08-08T06:34:25.743Z,25.33
2022-08-08T06:34:56.493Z,25.37
2022-08-08T06:36:07.350Z,25.41
2022-08-08T06:37:10.131Z,25.45
2022-08-08T06:38:14.630Z,25.48
2022-08-08T06:39:19.020Z,25.52
2022-08-08T06:40:27.346Z,25.56
2022-08-08T06:41:33.286Z,25.58
2022-08-08T06:42:39.365Z,25.61
2022-08-08T06:43:47.782Z,25.65
2022-08-08T06:44:53.868Z,25.67
2022-08-08T06:45:57.613Z,25.69
2022-08-08T06:47:01.662Z,25.71
2022-08-08T06:48:06.230Z,25.72
2022-08-08T06:49:12.875Z,25.74
2022-08-08T06:50:31.817Z,25.74
2022-08-08T06:51:23.867Z,25.76
2022-08-08T06:52:28.878Z,25.76
2022-08-08T06:53:38.947Z,25.78
2022-08-08T06:54:37.324Z,25.80
2022-08-08T06:55:47.353Z,25.82
2022-08-08T06:56:52.853Z,25.84
2022-08-08T06:57:59.521Z,25.87
2022-08-08T06:59:01.621Z,25.89
2022-08-08T07:00:12.473Z,25.90
2022-08-08T07:02:17.835Z,25.93
2022-08-08T07:02:28.744Z,25.96
2022-08-08T07:04:35.468Z,25.98
2022-08-08T07:04:52.184Z,26.01
2022-08-08T07:06:02.010Z,26.04
2022-08-08T07:07:10.344Z,26.06
2022-08-08T07:08:21.142Z,26.08
2022-08-08T07:09:45.137Z,26.10
2022-08-08T07:10:47.583Z,26.13
2022-08-08T07:11:51.028Z,26.17
2022-08-08T07:13:08.295Z,26.19
2022-08-08T07:14:16.439Z,26.22
2022-08-08T07:16:10.020Z,26.24
2022-08-08T07:17:00.421Z,26.27
2022-08-08T07:18:36.344Z,26.30
2022-08-08T07:19:22.513Z,26.33
2022-08-08T07:20:31.830Z,26.34
2022-08-08T07:21:41.533Z,26.37
2022-08-08T07:23:04.929Z,26.40
2022-08-08T07:24:12.609Z,26.42
2022-08-08T07:25:29.280Z,26.45
2022-08-08T07:26:35.370Z,26.48
2022-08-08T07:27:47.089Z,26.50
2022-08-08T07:28:49.235Z,26.54
2022-08-08T07:30:00.916Z,26.56
2022-08-08T07:30:59.155Z,26.59
2022-08-08T07:32:03.024Z,26.63
2022-08-08T07:33:10.183Z,26.66
2022-08-08T07:34:20.383Z,26.69
2022-08-08T07:35:21.506Z,26.71
2022-08-08T07:36:27.081Z,26.73
2022-08-08T07:37:49.535Z,26.77
2022-08-08T07:38:40.843Z,26.81
2022-08-08T07:39:55.883Z,26.84
2022-08-08T07:40:50.550Z,26.88
2022-08-08T07:42:03.715Z,26.91
2022-08-08T07:43:08.901Z,26.94
2022-08-08T07:44:33.651Z,26.99
2022-08-08T07:45:15.637Z,27.02
2022-08-08T07:46:30.253Z,27.05
2022-08-08T07:47:29.147Z,27.08
2022-08-08T07:48:31.481Z,27.12
2022-08-08T07:49:34.521Z,27.14
2022-08-08T07:50:38.123Z,27.17
2022-08-08T07:51:44.914Z,27.23
2022-08-08T07:52:54.511Z,27.23
2022-08-08T07:54:24.062Z,27.27
2022-08-08T07:55:28.571Z,27.29
2022-08-08T07:56:36.227Z,27.33
2022-08-08T07:58:04.068Z,27.35
2022-08-08T07:59:14.309Z,27.38
2022-08-08T08:00:18.932Z,27.42
2022-08-08T08:02:32.487Z,27.44
2022-08-08T08:03:49.690Z,27.61
2022-08-08T08:04:57.863Z,27.55
2022-08-08T08:06:04.647Z,27.57
2022-08-08T08:07:13.411Z,27.59
2022-08-08T08:08:20.564Z,27.62
2022-08-08T08:09:26.441Z,27.65
2022-08-08T08:10:33.195Z,27.68
2022-08-08T08:11:51.370Z,27.72
2022-08-08T08:12:47.581Z,27.77
2022-08-08T08:14:06.389Z,27.79
2022-08-08T08:15:11.658Z,27.84
2022-08-08T08:16:20.881Z,27.87
2022-08-08T08:17:36.488Z,27.91
2022-08-08T08:18:55.735Z,27.95
2022-08-08T08:19:47.220Z,27.97
2022-08-08T08:20:53.972Z,28.01
2022-08-08T08:22:00.670Z,28.05
2022-08-08T08:23:06.128Z,28.10
2022-08-08T08:24:10.637Z,28.10
2022-08-08T08:25:16.696Z,28.13
2022-08-08T08:26:27.426Z,28.16
2022-08-08T08:27:26.717Z,28.17
2022-08-08T08:28:32.308Z,28.19
2022-08-08T08:29:35.811Z,28.22
2022-08-08T08:30:39.349Z,28.24
2022-08-08T08:31:42.522Z,28.27
2022-08-08T08:32:50.970Z,28.30
2022-08-08T08:33:51.125Z,28.33
2022-08-08T08:34:55.343Z,28.35
2022-08-08T08:36:19.306Z,28.37
2022-08-08T08:37:07.624Z,28.39
2022-08-08T08:38:17.691Z,28.41
2022-08-08T08:39:17.532Z,28.43
2022-08-08T08:40:23.411Z,28.45
2022-08-08T08:41:31.121Z,28.48
2022-08-08T08:42:36.751Z,28.49
2022-08-08T08:43:45.878Z,28.51
2022-08-08T08:44:50.717Z,28.53
2022-08-08T08:45:57.309Z,28.56
2022-08-08T08:47:02.695Z,28.58
2022-08-08T08:48:09.331Z,28.60
2022-08-08T08:49:14.816Z,28.64
2022-08-08T08:50:33.689Z,28.65
2022-08-08T08:51:27.949Z,28.67
2022-08-08T08:52:33.413Z,28.70
2022-08-08T08:53:56.706Z,28.72
2022-08-08T08:54:47.335Z,28.73
2022-08-08T08:55:55.472Z,28.77
2022-08-08T08:56:59.094Z,28.79
2022-08-08T08:58:07.393Z,28.83
2022-08-08T08:59:15.739Z,28.85
2022-08-08T09:00:19.435Z,28.86
2022-08-08T09:01:25.214Z,28.88
2022-08-08T09:02:31.735Z,28.89
2022-08-08T09:03:47.007Z,28.90
2022-08-08T09:04:45.544Z,28.93
2022-08-08T09:05:54.911Z,28.93
2022-08-08T09:06:57.831Z,28.95
2022-08-08T09:08:12.825Z,28.96
2022-08-08T09:09:26.606Z,28.99
2022-08-08T09:10:17.250Z,29.00
2022-08-08T09:11:22.719Z,29.02
2022-08-08T09:12:28.545Z,29.04
2022-08-08T09:13:34.253Z,29.06
2022-08-08T09:14:42.425Z,29.08
2022-08-08T09:15:45.546Z,29.10
2022-08-08T09:16:51.439Z,29.12
2022-08-08T09:17:56.123Z,29.14
2022-08-08T09:19:01.705Z,29.16
2022-08-08T09:21:58.545Z,29.17
2022-08-08T09:22:04.771Z,29.20
2022-08-08T09:22:26.637Z,29.22
2022-08-08T09:23:33.685Z,29.26
2022-08-08T09:24:38.173Z,29.29
2022-08-08T09:26:00.653Z,29.32
2022-08-08T09:27:03.377Z,29.34
2022-08-08T09:28:06.511Z,29.36
2022-08-08T09:29:24.497Z,29.40
2022-08-08T09:30:33.243Z,29.42
2022-08-08T09:31:56.928Z,29.47
2022-08-08T09:33:54.001Z,29.49
2022-08-08T09:34:31.113Z,29.52
2022-08-08T09:35:18.942Z,29.53
2022-08-08T09:36:27.813Z,29.56
2022-08-08T09:38:01.045Z,29.58
2022-08-08T09:38:53.502Z,29.61
2022-08-08T09:40:10.728Z,29.64
2022-08-08T09:41:15.216Z,29.67
2022-08-08T09:42:23.098Z,29.70
2022-08-08T09:44:04.652Z,29.73
2022-08-08T09:45:03.900Z,29.74
2022-08-08T09:46:11.197Z,29.80
2022-08-08T09:47:26.689Z,29.80
2022-08-08T09:48:28.945Z,29.82
2022-08-08T09:49:49.998Z,29.85
2022-08-08T09:50:34.579Z,29.89
2022-08-08T09:52:01.813Z,29.92
2022-08-08T09:52:56.595Z,29.95
2022-08-08T09:54:08.366Z,29.99
2022-08-08T09:55:06.595Z,30.02
2022-08-08T09:56:12.642Z,30.05
2022-08-08T09:57:25.141Z,30.07
2022-08-08T09:58:40.585Z,30.10
2022-08-08T10:00:01.973Z,30.13
2022-08-08T10:00:53.102Z,30.16
2022-08-08T10:02:02.500Z,30.18
2022-08-08T10:03:02.777Z,30.22
2022-08-08T10:04:10.489Z,30.25
2022-08-08T10:05:25.215Z,30.29
2022-08-08T10:06:29.710Z,30.32
2022-08-08T10:07:36.044Z,30.33
2022-08-08T10:08:45.178Z,30.34
2022-08-08T10:09:59.755Z,30.34
2022-08-08T10:10:58.810Z,30.33
2022-08-08T10:12:28.419Z,30.34
2022-08-08T10:13:35.636Z,30.33
2022-08-08T10:14:38.582Z,30.33
2022-08-08T10:16:01.175Z,30.32
2022-08-08T10:16:55.255Z,30.30
2022-08-08T10:18:07.224Z,30.28
2022-08-08T10:19:05.564Z,30.25
2022-08-08T10:20:12.117Z,30.23
2022-08-08T10:21:24.949Z,30.21
2022-08-08T10:22:24.182Z,30.19
2022-08-08T10:23:45.866Z,30.16
2022-08-08T10:24:48.358Z,30.14
2022-08-08T10:25:57.024Z,30.10
2022-08-08T10:27:01.444Z,30.06
2022-08-08T10:28:06.633Z,30.05
2022-08-08T10:29:12.780Z,30.02
2022-08-08T10:30:59.608Z,30.01
2022-08-08T10:31:49.009Z,30.00
2022-08-08T10:32:55.930Z,29.99
2022-08-08T10:34:18.907Z,29.98
2022-08-08T10:36:09.622Z,29.99
2022-08-08T10:36:27.084Z,30.00
2022-08-08T10:37:34.504Z,30.01
2022-08-08T10:38:40.613Z,30.01
2022-08-08T10:39:53.627Z,30.02
2022-08-08T10:40:52.111Z,30.05
2022-08-08T10:42:14.813Z,30.06
2022-08-08T10:43:05.808Z,30.08
2022-08-08T10:44:11.966Z,30.09
2022-08-08T10:45:16.924Z,30.11
2022-08-08T10:46:30.374Z,30.14
2022-08-08T10:47:43.051Z,30.15
2022-08-08T10:48:57.764Z,30.18
2022-08-08T10:50:02.301Z,30.21
2022-08-08T10:50:59.125Z,30.23
2022-08-08T10:52:04.207Z,30.27
2022-08-08T10:53:12.641Z,30.30
2022-08-08T10:54:20.458Z,30.32
2022-08-08T10:55:40.480Z,30.35
2022-08-08T10:56:35.903Z,30.37
2022-08-08T10:57:53.069Z,30.41
2022-08-08T10:59:01.171Z,30.46
2022-08-08T11:00:06.105Z,30.49
2022-08-08T11:01:12.699Z,30.53
2022-08-08T11:02:25.447Z,30.57
2022-08-08T11:03:52.279Z,30.59
2022-08-08T11:04:53.622Z,30.62
2022-08-08T11:06:00.647Z,30.64
2022-08-08T11:07:00.033Z,30.65
2022-08-08T11:08:31.441Z,30.67
2022-08-08T11:09:19.701Z,30.69
2022-08-08T11:10:19.489Z,30.70
2022-08-08T11:12:00.029Z,30.68
2022-08-08T11:12:29.331Z,30.66
2022-08-08T11:13:51.886Z,30.66
2022-08-08T11:14:53.132Z,30.65
2022-08-08T11:16:00.975Z,30.62
2022-08-08T11:17:04.869Z,30.61
2022-08-08T11:18:08.307Z,30.60
2022-08-08T11:19:12.891Z,30.59
2022-08-08T11:20:27.439Z,30.59
2022-08-08T11:21:35.268Z,30.58
2022-08-08T11:22:36.215Z,30.58
2022-08-08T11:23:43.545Z,30.59
2022-08-08T11:24:48.452Z,30.60
2022-08-08T11:25:58.444Z,30.61
2022-08-08T11:27:10.326Z,30.62
2022-08-08T11:28:09.183Z,30.64
2022-08-08T11:29:13.884Z,30.67
2022-08-08T11:30:24.947Z,30.70
2022-08-08T11:31:30.450Z,30.72
2022-08-08T11:32:39.097Z,30.75
2022-08-08T11:33:53.192Z,30.76
2022-08-08T11:35:27.138Z,30.78
2022-08-08T11:36:01.057Z,30.81
2022-08-08T11:37:15.328Z,30.84
2022-08-08T11:38:35.602Z,30.85
2022-08-08T11:39:22.816Z,30.87
2022-08-08T11:40:26.984Z,30.88
2022-08-08T11:41:33.522Z,30.88
2022-08-08T11:42:37.789Z,30.89
2022-08-08T11:43:42.654Z,30.89
2022-08-08T11:44:46.812Z,30.89
2022-08-08T11:46:09.931Z,30.87
2022-08-08T11:46:57.368Z,30.84
2022-08-08T11:48:05.059Z,30.82
2022-08-08T11:49:09.260Z,30.79
2022-08-08T11:50:23.570Z,30.76
2022-08-08T11:51:29.847Z,30.74
2022-08-08T11:52:32.088Z,30.71
2022-08-08T11:53:43.040Z,30.68
2022-08-08T11:54:46.511Z,30.66
2022-08-08T11:55:51.308Z,30.65
2022-08-08T11:56:56.755Z,30.64
2022-08-08T11:58:15.232Z,30.64
2022-08-08T11:59:13.352Z,30.64
2022-08-08T12:00:18.286Z,30.63
2022-08-08T12:01:25.071Z,30.62
2022-08-08T12:02:32.761Z,30.63
2022-08-08T12:03:35.015Z,30.63
2022-08-08T12:04:38.588Z,30.64
2022-08-08T12:05:41.771Z,30.64
2022-08-08T12:06:46.734Z,30.64
2022-08-08T12:07:55.971Z,30.63
2022-08-08T12:09:08.512Z,30.62
2022-08-08T12:10:17.696Z,30.61
2022-08-08T12:11:26.942Z,30.60
2022-08-08T12:12:28.662Z,30.59
2022-08-08T12:13:38.517Z,30.57
2022-08-08T12:14:36.316Z,30.56
2022-08-08T12:15:47.160Z,30.54
2022-08-08T12:16:54.091Z,30.53
2022-08-08T12:17:57.227Z,30.52
2022-08-08T12:19:05.719Z,30.51
2022-08-08T12:20:10.186Z,30.50
2022-08-08T12:22:00.660Z,30.49
2022-08-08T12:22:50.021Z,30.50
2022-08-08T12:24:12.843Z,30.51
2022-08-08T12:25:30.896Z,30.54
2022-08-08T12:26:45.429Z,30.55
2022-08-08T12:27:51.203Z,30.58
2022-08-08T12:28:56.790Z,30.60
2022-08-08T12:30:01.889Z,30.62
2022-08-08T12:31:10.064Z,30.63
2022-08-08T12:32:20.159Z,30.64
2022-08-08T12:33:37.345Z,30.65
2022-08-08T12:34:43.533Z,30.66
2022-08-08T12:35:52.810Z,30.68
2022-08-08T12:36:57.139Z,30.69
2022-08-08T12:38:07.942Z,30.68
2022-08-08T12:39:12.363Z,30.71
2022-08-08T12:40:23.806Z,30.71
2022-08-08T12:41:34.878Z,30.74
2022-08-08T12:42:33.438Z,30.74
2022-08-08T12:43:43.793Z,30.74
2022-08-08T12:44:42.103Z,30.76
2022-08-08T12:45:58.582Z,30.78
2022-08-08T12:47:00.105Z,30.78
2022-08-08T12:48:17.910Z,30.79
2022-08-08T12:49:25.450Z,30.80
2022-08-08T12:50:15.151Z,30.80
2022-08-08T12:51:21.762Z,30.81
2022-08-08T12:52:28.657Z,30.82
2022-08-08T12:53:36.493Z,30.82
2022-08-08T12:54:38.499Z,30.83
2022-08-08T12:56:18.334Z,30.84
2022-08-08T12:57:18.337Z,30.84
2022-08-08T12:58:23.731Z,30.84
2022-08-08T12:59:44.760Z,30.84
2022-08-08T13:00:39.103Z,30.83
2022-08-08T13:01:40.853Z,30.83
2022-08-08T13:02:53.205Z,30.83
2022-08-08T13:03:51.885Z,30.83
2022-08-08T13:04:57.960Z,30.83
2022-08-08T13:06:14.478Z,30.84
2022-08-08T13:07:17.470Z,30.87
2022-08-08T13:08:36.339Z,30.88
2022-08-08T13:09:33.023Z,30.89
2022-08-08T13:10:36.158Z,30.89
2022-08-08T13:12:24.423Z,30.92
2022-08-08T13:12:48.303Z,30.93
2022-08-08T13:13:54.522Z,30.95
2022-08-08T13:15:02.146Z,30.96
2022-08-08T13:16:20.732Z,30.98
2022-08-08T13:18:08.262Z,31.02
2022-08-08T13:18:56.321Z,31.10
2022-08-08T13:19:50.006Z,31.10
2022-08-08T13:20:48.927Z,31.13
2022-08-08T13:21:58.373Z,31.18
2022-08-08T13:23:29.869Z,31.22
2022-08-08T13:24:01.603Z,31.26
2022-08-08T13:25:05.527Z,31.33
2022-08-08T13:26:14.732Z,31.39
2022-08-08T13:27:21.070Z,31.44
2022-08-08T13:28:32.436Z,31.49
2022-08-08T13:29:50.437Z,31.56
2022-08-08T13:30:56.266Z,31.62
2022-08-08T13:32:03.114Z,31.68
2022-08-08T13:33:06.616Z,31.74
2022-08-08T13:34:13.657Z,31.81
2022-08-08T13:35:25.195Z,31.87
2022-08-08T13:36:25.882Z,31.95
2022-08-08T13:38:05.101Z,32.01
2022-08-08T13:38:37.521Z,32.07
2022-08-08T13:39:42.654Z,32.13
2022-08-08T13:40:48.002Z,32.20
2022-08-08T13:41:58.343Z,32.25
2022-08-08T13:42:59.245Z,32.32
2022-08-08T13:44:02.420Z,32.39
2022-08-08T13:45:10.843Z,32.44
2022-08-08T13:46:26.616Z,32.50
2022-08-08T13:47:20.444Z,32.56
2022-08-08T13:48:25.997Z,32.61
2022-08-08T13:50:36.644Z,32.67
2022-08-08T13:50:50.519Z,32.73
2022-08-08T13:51:56.461Z,32.80
2022-08-08T13:52:59.569Z,32.85
2022-08-08T13:54:02.943Z,32.90
2022-08-08T13:55:08.132Z,32.95
2022-08-08T13:56:12.363Z,33.00
2022-08-08T13:57:15.972Z,33.04
2022-08-08T13:58:20.183Z,33.08
2022-08-08T13:59:32.623Z,33.10
2022-08-08T14:00:45.018Z,33.15
2022-08-08T14:01:56.714Z,33.18
2022-08-08T14:02:58.953Z,33.20
2022-08-08T14:04:02.360Z,33.23
2022-08-08T14:05:22.005Z,33.25
2022-08-08T14:06:33.250Z,33.27
2022-08-08T14:07:30.489Z,33.29
2022-08-08T14:08:35.491Z,33.30
2022-08-08T14:10:04.285Z,33.31
2022-08-08T14:10:45.778Z,33.32
2022-08-08T14:11:48.951Z,33.31
2022-08-08T14:12:53.522Z,33.31
2022-08-08T14:14:02.299Z,33.28
2022-08-08T14:15:06.876Z,33.25
2022-08-08T14:16:16.708Z,33.22
2022-08-08T14:17:36.356Z,33.18
2022-08-08T14:18:35.198Z,33.13
2022-08-08T14:19:57.887Z,33.07
2022-08-08T14:20:56.475Z,33.02
2022-08-08T14:21:53.835Z,32.96
2022-08-08T14:22:54.576Z,32.89
2022-08-08T14:24:06.522Z,32.84
2022-08-08T14:25:07.751Z,32.78
2022-08-08T14:26:28.110Z,32.74
2022-08-08T14:27:34.171Z,32.68
2022-08-08T14:28:37.599Z,32.61
2022-08-08T14:29:55.219Z,32.55
2022-08-08T14:31:09.158Z,32.50
2022-08-08T14:32:29.662Z,32.45
2022-08-08T14:33:28.087Z,32.41
2022-08-08T14:34:33.067Z,32.35
2022-08-08T14:35:36.546Z,32.32
2022-08-08T14:36:40.880Z,32.27
2022-08-08T14:37:59.957Z,32.25
2022-08-08T14:38:58.594Z,32.22
2022-08-08T14:40:05.481Z,32.19
2022-08-08T14:41:45.033Z,32.15
2022-08-08T14:42:29.871Z,32.13
2022-08-08T14:44:10.419Z,32.10
2022-08-08T14:45:10.970Z,32.08
2022-08-08T14:46:17.052Z,32.05
2022-08-08T14:47:21.601Z,32.01
2022-08-08T14:48:34.858Z,31.97
2022-08-08T14:49:37.756Z,31.94
2022-08-08T14:50:39.797Z,31.91
2022-08-08T14:51:52.342Z,31.88
2022-08-08T14:53:03.155Z,31.84
2022-08-08T14:54:08.203Z,31.81
2022-08-08T14:55:13.706Z,31.78
2022-08-08T14:56:20.736Z,31.75
2022-08-08T14:58:00.864Z,31.71
2022-08-08T14:58:30.823Z,31.70
2022-08-08T14:59:50.051Z,31.67
2022-08-08T15:00:39.713Z,31.64
2022-08-08T15:01:46.371Z,31.62
2022-08-08T15:03:11.728Z,31.59
2022-08-08T15:04:09.019Z,31.57
2022-08-08T15:05:10.656Z,31.54
2022-08-08T15:06:16.674Z,31.51
2022-08-08T15:07:24.515Z,31.49
2022-08-08T15:08:35.689Z,31.47
2022-08-08T15:09:32.393Z,31.45
2022-08-08T15:10:35.491Z,31.42